Algiers Airport, Algeria

8:34 AM CET on August 31, 2015 (GMT +0100)
Houari Boumediene | | Change Station
CLOSE
Current Station
Airport
Location: Algiers Airport,
Elevation: 82 ft
Nearby Weather Stations

Elev 82 ft 36.69 °N, 3.22 °E | Updated 34 minutes ago

Clear
Clear
81 °F
Feels Like 85 °F
N
5
Wind Variable Wind from ENE

Today
High -- | Low -- °F
--% Chance of Precip.
Yesterday
High -- | Low -- °F
Precip. -- in
6:16 AM 7:17 PM
Waning Gibbous, 96% visible
Pressure 29.98 in
Visibility 3.7 miles
Clouds
Heat Index 85 °F
Dew Point 73 °F
Humidity 79%
Rainfall 0.00 in
Snow Depth Not available.
UV Not available.
Pollen Not available.
Air Quality Not available.
Flu Activity Not available.
METAR DAAG 310700Z 06004KT 020V090 6000 NSC 27/23 Q1015
Pressure 29.98 in
Visibility 3.7 miles
Clouds
Heat Index 85 °F
Dew Point 73 °F
Humidity 79%
Rainfall 0.00 in
Snow Depth Not available.
UV Not available.
Pollen Not available.
Air Quality Not available.
Flu Activity Not available.
METAR DAAG 310700Z 06004KT 020V090 6000 NSC 27/23 Q1015

10-Day Weather Forecast

×

Almanac

Astronomy

Aug. 31, 2015 Rise Set
Actual Time
Civil Twilight
Nautical Twilight
Astronomical Twilight
Moon
Length of Visible Light
Length of Day
Tomorrow will be .
, % of the Moon is Illuminated

Today's Extremes

Country Highs Country Lows

Community

WunderPhotos

Upload Photos

1,851,220 photos uploaded!

WunderBlogs® & News

Nearby

Air Quality

  Air Quality AQ Index Pollutant
Not available.

Snow Depth

Station Depth Elevation

Earthquake Activity

City Distance Mag. Time & Date
Minimum magnitude displayed is 2.5.

Coastal Water Temperatures

Place Temperature

Stations

Nearby Weather Stations

Station Location Temp. Windchill Dew Point Humidity Wind Precip. Elev Updated Type